Pagina principale
METAR-TAF:

METAR-TAF

Aeroporti :

Aeroporto di Roma-Fiumicino

Roma-Fiumicino, Italia

latitudine: 41-48N, longitudine: 012-14E, altezza: 2 m

Osservazione

Il bollettino è stato emesso 32 minuti fa, alle 13:50 UTC
Vento 8 kt da sud-ovest
Temperature 16°C
Umidità 55%
Pressione 1031 hPa
Visibilità 10 km o più
nessuna nube inferiore a 1500 m e nessun cumulonembo

METAR: LIRF 021350Z 23008KT CAVOK 16/07 Q1031 NOSIG

Ora: 15:22 (14:22 UTC)

Previsione

Il bollettino è stato emesso 2 ore e 9 minuti fa, alle 12:13 UTC
Previsione valida dal 02 alle 12 UTC al 03 alle 18 UTC
Vento 10 kt da ovest
Visibilità 10 km o più
nessuna nube inferiore a 1500 m e nessun cumulonembo
Evoluzione graduale
dal 02 alle 17 UTC al 02 alle 19 UTC
Vento 4 kt da direzioni variabili
Evoluzione graduale
dal 03 alle 09 UTC al 03 alle 11 UTC
Vento 10 kt da ovest

TAF: LIRF 021213Z 0212/0318 28010KT CAVOK BECMG 0217/0219 VRB04KT BECMG 0309/0311 27010KT

Osservazioni e previsioni meteorologiche di più di 4000 aeroporti (messaggi METAR e TAF).

Le stazioni disponibili sono rappresentate dai dischi gialli e rossi sulla carta.

Puntare il mouse per vedere il nome della stazione.

Clicca sopra per visualizzare le osservazioni e previsioni meteorologiche.

Per cambiare la mappa : fare clic sui pulsanti verdi con una croce nera per ingrandire, il pulsante verde con un trattino per diminuire, o sulla freccia verde per le mappe adiacenti.


METAR-TAF: